sensor_id;sensor_type;location;lat;lon;timestamp;P1;durP1;ratioP1;P2;durP2;ratioP2
78838;SDS011;68405;47.190;27.558;2023-07-22T00:01:56;3.10;;;2.20;;
78838;SDS011;68405;47.190;27.558;2023-07-22T00:04:28;3.10;;;2.30;;
78838;SDS011;68405;47.190;27.558;2023-07-22T00:06:59;5.30;;;2.50;;
78838;SDS011;68405;47.190;27.558;2023-07-22T00:09:34;4.20;;;2.60;;
78838;SDS011;68405;47.190;27.558;2023-07-22T00:12:07;3.80;;;2.40;;
78838;SDS011;68405;47.190;27.558;2023-07-22T00:14:40;4.90;;;2.70;;
78838;SDS011;68405;47.190;27.558;2023-07-22T00:17:12;4.60;;;2.50;;
78838;SDS011;68405;47.190;27.558;2023-07-22T00:19:43;5.60;;;3.10;;
78838;SDS011;68405;47.190;27.558;2023-07-22T00:22:15;4.70;;;2.80;;
78838;SDS011;68405;47.190;27.558;2023-07-22T00:24:48;3.80;;;3.10;;
78838;SDS011;68405;47.190;27.558;2023-07-22T00:27:19;4.40;;;2.80;;
78838;SDS011;68405;47.190;27.558;2023-07-22T00:29:51;7.30;;;2.90;;
78838;SDS011;68405;47.190;27.558;2023-07-22T00:32:23;5.60;;;2.50;;
78838;SDS011;68405;47.190;27.558;2023-07-22T00:34:55;4.60;;;3.00;;
78838;SDS011;68405;47.190;27.558;2023-07-22T00:37:26;5.20;;;2.90;;
78838;SDS011;68405;47.190;27.558;2023-07-22T00:39:58;5.60;;;3.10;;
78838;SDS011;68405;47.190;27.558;2023-07-22T00:42:32;6.20;;;3.20;;
78838;SDS011;68405;47.190;27.558;2023-07-22T00:45:04;5.40;;;2.50;;
78838;SDS011;68405;47.190;27.558;2023-07-22T00:47:37;9.00;;;3.00;;
78838;SDS011;68405;47.190;27.558;2023-07-22T00:50:09;4.90;;;3.00;;
78838;SDS011;68405;47.190;27.558;2023-07-22T00:52:41;4.90;;;2.90;;
78838;SDS011;68405;47.190;27.558;2023-07-22T00:55:13;6.10;;;3.70;;
78838;SDS011;68405;47.190;27.558;2023-07-22T00:57:44;4.60;;;2.60;;
78838;SDS011;68405;47.190;27.558;2023-07-22T01:00:16;4.30;;;3.10;;
78838;SDS011;68405;47.190;27.558;2023-07-22T01:02:48;5.40;;;2.70;;
78838;SDS011;68405;47.190;27.558;2023-07-22T01:05:20;3.40;;;3.10;;
78838;SDS011;68405;47.190;27.558;2023-07-22T01:07:53;4.70;;;3.20;;
78838;SDS011;68405;47.190;27.558;2023-07-22T01:10:25;7.70;;;2.90;;
78838;SDS011;68405;47.190;27.558;2023-07-22T01:12:56;3.40;;;2.70;;
78838;SDS011;68405;47.190;27.558;2023-07-22T01:15:28;6.10;;;3.60;;
78838;SDS011;68405;47.190;27.558;2023-07-22T01:18:00;6.20;;;3.00;;
78838;SDS011;68405;47.190;27.558;2023-07-22T01:20:34;4.70;;;2.90;;
78838;SDS011;68405;47.190;27.558;2023-07-22T01:23:07;3.50;;;2.70;;
78838;SDS011;68405;47.190;27.558;2023-07-22T01:25:39;5.70;;;2.90;;
78838;SDS011;68405;47.190;27.558;2023-07-22T01:28:12;5.00;;;3.00;;
78838;SDS011;68405;47.190;27.558;2023-07-22T01:30:43;6.20;;;3.00;;
78838;SDS011;68405;47.190;27.558;2023-07-22T01:33:15;8.00;;;2.60;;
78838;SDS011;68405;47.190;27.558;2023-07-22T01:35:46;5.10;;;2.90;;
78838;SDS011;68405;47.190;27.558;2023-07-22T01:38:18;4.40;;;2.90;;
78838;SDS011;68405;47.190;27.558;2023-07-22T01:40:50;5.00;;;2.50;;
78838;SDS011;68405;47.190;27.558;2023-07-22T01:43:21;4.00;;;2.80;;
78838;SDS011;68405;47.190;27.558;2023-07-22T01:45:53;8.70;;;3.20;;
78838;SDS011;68405;47.190;27.558;2023-07-22T01:48:25;3.90;;;2.70;;
78838;SDS011;68405;47.190;27.558;2023-07-22T01:50:56;5.10;;;3.20;;
78838;SDS011;68405;47.190;27.558;2023-07-22T01:53:28;3.80;;;2.30;;
78838;SDS011;68405;47.190;27.558;2023-07-22T01:56:00;4.10;;;2.50;;
78838;SDS011;68405;47.190;27.558;2023-07-22T01:58:33;5.50;;;3.10;;
78838;SDS011;68405;47.190;27.558;2023-07-22T02:01:04;4.90;;;2.80;;
78838;SDS011;68405;47.190;27.558;2023-07-22T02:03:36;5.90;;;3.00;;
78838;SDS011;68405;47.190;27.558;2023-07-22T02:06:08;5.60;;;3.10;;
78838;SDS011;68405;47.190;27.558;2023-07-22T02:08:40;8.00;;;2.90;;
78838;SDS011;68405;47.190;27.558;2023-07-22T02:11:12;3.60;;;2.60;;
78838;SDS011;68405;47.190;27.558;2023-07-22T02:13:43;3.60;;;2.60;;
78838;SDS011;68405;47.190;27.558;2023-07-22T02:16:15;5.10;;;3.10;;
78838;SDS011;68405;47.190;27.558;2023-07-22T02:18:47;6.70;;;3.00;;
78838;SDS011;68405;47.190;27.558;2023-07-22T02:21:18;8.00;;;3.20;;
78838;SDS011;68405;47.190;27.558;2023-07-22T02:23:50;4.10;;;3.00;;
78838;SDS011;68405;47.190;27.558;2023-07-22T02:26:22;5.10;;;3.30;;
78838;SDS011;68405;47.190;27.558;2023-07-22T02:28:53;5.00;;;3.20;;
78838;SDS011;68405;47.190;27.558;2023-07-22T02:31:25;6.10;;;3.30;;
78838;SDS011;68405;47.190;27.558;2023-07-22T02:33:57;5.60;;;3.30;;
78838;SDS011;68405;47.190;27.558;2023-07-22T03:02:39;5.80;;;2.70;;
78838;SDS011;68405;47.190;27.558;2023-07-22T03:05:08;4.50;;;2.70;;
78838;SDS011;68405;47.190;27.558;2023-07-22T03:07:37;5.90;;;3.40;;
78838;SDS011;68405;47.190;27.558;2023-07-22T03:10:07;6.10;;;3.20;;
78838;SDS011;68405;47.190;27.558;2023-07-22T03:12:37;5.10;;;2.50;;
78838;SDS011;68405;47.190;27.558;2023-07-22T03:15:07;7.00;;;2.80;;
78838;SDS011;68405;47.190;27.558;2023-07-22T03:17:36;5.90;;;3.10;;
78838;SDS011;68405;47.190;27.558;2023-07-22T03:20:10;4.60;;;2.70;;
78838;SDS011;68405;47.190;27.558;2023-07-22T03:22:41;6.90;;;2.70;;
78838;SDS011;68405;47.190;27.558;2023-07-22T03:25:10;5.70;;;3.40;;
78838;SDS011;68405;47.190;27.558;2023-07-22T03:27:40;3.40;;;2.70;;
78838;SDS011;68405;47.190;27.558;2023-07-22T03:30:10;3.90;;;2.70;;
78838;SDS011;68405;47.190;27.558;2023-07-22T03:32:42;5.60;;;3.00;;
78838;SDS011;68405;47.190;27.558;2023-07-22T03:35:11;4.70;;;2.70;;
78838;SDS011;68405;47.190;27.558;2023-07-22T03:37:40;4.20;;;2.80;;
78838;SDS011;68405;47.190;27.558;2023-07-22T03:40:10;4.50;;;2.90;;
78838;SDS011;68405;47.190;27.558;2023-07-22T03:42:41;6.50;;;2.70;;
78838;SDS011;68405;47.190;27.558;2023-07-22T03:45:10;6.50;;;3.10;;
78838;SDS011;68405;47.190;27.558;2023-07-22T03:47:39;4.00;;;3.10;;
78838;SDS011;68405;47.190;27.558;2023-07-22T03:50:09;6.00;;;3.10;;
78838;SDS011;68405;47.190;27.558;2023-07-22T03:52:38;5.00;;;3.10;;
78838;SDS011;68405;47.190;27.558;2023-07-22T03:55:08;4.30;;;3.00;;
78838;SDS011;68405;47.190;27.558;2023-07-22T03:57:37;5.50;;;3.20;;
78838;SDS011;68405;47.190;27.558;2023-07-22T04:00:07;5.10;;;3.50;;
78838;SDS011;68405;47.190;27.558;2023-07-22T04:02:37;7.20;;;3.50;;
78838;SDS011;68405;47.190;27.558;2023-07-22T04:05:07;6.80;;;3.10;;
78838;SDS011;68405;47.190;27.558;2023-07-22T04:07:38;6.40;;;3.20;;
78838;SDS011;68405;47.190;27.558;2023-07-22T04:10:07;5.70;;;3.50;;
78838;SDS011;68405;47.190;27.558;2023-07-22T04:12:36;6.60;;;3.20;;
78838;SDS011;68405;47.190;27.558;2023-07-22T04:15:06;5.10;;;3.00;;
78838;SDS011;68405;47.190;27.558;2023-07-22T04:17:36;7.60;;;3.10;;
78838;SDS011;68405;47.190;27.558;2023-07-22T04:20:07;6.60;;;3.30;;
78838;SDS011;68405;47.190;27.558;2023-07-22T04:22:37;5.60;;;3.90;;
78838;SDS011;68405;47.190;27.558;2023-07-22T04:25:07;3.50;;;2.50;;
78838;SDS011;68405;47.190;27.558;2023-07-22T04:27:37;7.80;;;3.30;;
78838;SDS011;68405;47.190;27.558;2023-07-22T04:30:07;4.60;;;3.30;;
78838;SDS011;68405;47.190;27.558;2023-07-22T04:32:36;6.70;;;3.50;;
78838;SDS011;68405;47.190;27.558;2023-07-22T04:35:07;5.40;;;3.20;;
78838;SDS011;68405;47.190;27.558;2023-07-22T04:37:36;3.50;;;2.90;;
78838;SDS011;68405;47.190;27.558;2023-07-22T04:40:07;5.60;;;3.10;;
78838;SDS011;68405;47.190;27.558;2023-07-22T04:42:41;4.00;;;3.20;;
78838;SDS011;68405;47.190;27.558;2023-07-22T04:45:11;6.90;;;3.50;;
78838;SDS011;68405;47.190;27.558;2023-07-22T04:47:40;7.90;;;3.70;;
78838;SDS011;68405;47.190;27.558;2023-07-22T04:50:11;4.20;;;3.30;;
78838;SDS011;68405;47.190;27.558;2023-07-22T04:55:12;3.90;;;3.10;;
78838;SDS011;68405;47.190;27.558;2023-07-22T04:57:41;5.60;;;3.50;;
78838;SDS011;68405;47.190;27.558;2023-07-22T05:00:12;6.60;;;3.00;;
78838;SDS011;68405;47.190;27.558;2023-07-22T05:02:43;8.50;;;3.20;;
78838;SDS011;68405;47.190;27.558;2023-07-22T05:05:12;7.30;;;2.90;;
78838;SDS011;68405;47.190;27.558;2023-07-22T05:07:42;5.00;;;3.20;;
78838;SDS011;68405;47.190;27.558;2023-07-22T05:10:12;5.10;;;3.20;;
78838;SDS011;68405;47.190;27.558;2023-07-22T05:12:41;5.20;;;3.90;;
78838;SDS011;68405;47.190;27.558;2023-07-22T05:15:10;8.20;;;2.80;;
78838;SDS011;68405;47.190;27.558;2023-07-22T05:17:40;5.60;;;3.30;;
78838;SDS011;68405;47.190;27.558;2023-07-22T05:20:10;6.30;;;3.30;;
78838;SDS011;68405;47.190;27.558;2023-07-22T05:22:39;3.80;;;2.70;;
78838;SDS011;68405;47.190;27.558;2023-07-22T05:25:09;4.80;;;3.40;;
78838;SDS011;68405;47.190;27.558;2023-07-22T05:27:39;4.50;;;3.20;;
78838;SDS011;68405;47.190;27.558;2023-07-22T05:30:08;5.70;;;3.10;;
78838;SDS011;68405;47.190;27.558;2023-07-22T05:32:38;3.80;;;3.40;;
78838;SDS011;68405;47.190;27.558;2023-07-22T05:35:07;3.70;;;2.40;;
78838;SDS011;68405;47.190;27.558;2023-07-22T05:37:37;4.70;;;3.00;;
78838;SDS011;68405;47.190;27.558;2023-07-22T05:40:07;5.80;;;3.30;;
78838;SDS011;68405;47.190;27.558;2023-07-22T05:42:37;6.30;;;3.20;;
78838;SDS011;68405;47.190;27.558;2023-07-22T05:45:06;6.50;;;3.40;;
78838;SDS011;68405;47.190;27.558;2023-07-22T05:47:40;9.30;;;3.60;;
78838;SDS011;68405;47.190;27.558;2023-07-22T05:50:09;8.90;;;4.10;;
78838;SDS011;68405;47.190;27.558;2023-07-22T05:52:38;5.10;;;4.00;;
78838;SDS011;68405;47.190;27.558;2023-07-22T05:55:07;6.80;;;3.10;;
78838;SDS011;68405;47.190;27.558;2023-07-22T05:57:37;3.90;;;2.90;;
78838;SDS011;68405;47.190;27.558;2023-07-22T06:00:07;7.20;;;3.60;;
78838;SDS011;68405;47.190;27.558;2023-07-22T06:02:40;4.80;;;2.60;;
78838;SDS011;68405;47.190;27.558;2023-07-22T06:05:09;6.50;;;3.10;;
78838;SDS011;68405;47.190;27.558;2023-07-22T06:07:38;3.50;;;2.80;;
78838;SDS011;68405;47.190;27.558;2023-07-22T06:10:07;3.10;;;2.70;;
78838;SDS011;68405;47.190;27.558;2023-07-22T06:12:37;4.10;;;3.20;;
78838;SDS011;68405;47.190;27.558;2023-07-22T06:15:07;5.60;;;2.80;;
78838;SDS011;68405;47.190;27.558;2023-07-22T06:17:37;3.90;;;2.40;;
78838;SDS011;68405;47.190;27.558;2023-07-22T06:20:07;2.70;;;2.50;;
78838;SDS011;68405;47.190;27.558;2023-07-22T06:22:37;3.50;;;3.10;;
78838;SDS011;68405;47.190;27.558;2023-07-22T06:25:07;4.30;;;2.70;;
78838;SDS011;68405;47.190;27.558;2023-07-22T06:27:37;3.30;;;2.50;;
78838;SDS011;68405;47.190;27.558;2023-07-22T06:30:07;5.60;;;2.80;;
78838;SDS011;68405;47.190;27.558;2023-07-22T06:32:37;4.70;;;2.30;;
78838;SDS011;68405;47.190;27.558;2023-07-22T06:35:07;4.50;;;2.80;;
78838;SDS011;68405;47.190;27.558;2023-07-22T06:37:36;5.70;;;2.70;;
78838;SDS011;68405;47.190;27.558;2023-07-22T06:40:07;4.90;;;3.00;;
78838;SDS011;68405;47.190;27.558;2023-07-22T06:42:37;5.60;;;3.20;;
78838;SDS011;68405;47.190;27.558;2023-07-22T06:45:06;3.80;;;3.30;;
78838;SDS011;68405;47.190;27.558;2023-07-22T06:47:36;4.90;;;2.80;;
78838;SDS011;68405;47.190;27.558;2023-07-22T06:50:06;4.50;;;3.20;;
78838;SDS011;68405;47.190;27.558;2023-07-22T06:52:35;4.80;;;3.10;;
78838;SDS011;68405;47.190;27.558;2023-07-22T06:55:05;4.70;;;3.20;;
78838;SDS011;68405;47.190;27.558;2023-07-22T06:57:34;4.80;;;3.40;;
78838;SDS011;68405;47.190;27.558;2023-07-22T07:00:06;4.70;;;3.40;;
78838;SDS011;68405;47.190;27.558;2023-07-22T07:02:36;6.00;;;3.20;;
78838;SDS011;68405;47.190;27.558;2023-07-22T07:05:06;5.20;;;3.70;;
78838;SDS011;68405;47.190;27.558;2023-07-22T07:07:35;5.70;;;4.00;;
78838;SDS011;68405;47.190;27.558;2023-07-22T07:10:05;5.60;;;3.40;;
78838;SDS011;68405;47.190;27.558;2023-07-22T07:12:35;4.80;;;3.40;;
78838;SDS011;68405;47.190;27.558;2023-07-22T07:15:05;6.70;;;3.70;;
78838;SDS011;68405;47.190;27.558;2023-07-22T07:17:36;6.00;;;3.50;;
78838;SDS011;68405;47.190;27.558;2023-07-22T07:20:06;4.40;;;3.40;;
78838;SDS011;68405;47.190;27.558;2023-07-22T07:22:36;5.40;;;3.40;;
78838;SDS011;68405;47.190;27.558;2023-07-22T07:25:06;5.70;;;3.50;;
78838;SDS011;68405;47.190;27.558;2023-07-22T07:27:35;3.20;;;2.80;;
78838;SDS011;68405;47.190;27.558;2023-07-22T07:30:06;4.30;;;3.30;;
78838;SDS011;68405;47.190;27.558;2023-07-22T07:32:37;5.00;;;3.40;;
78838;SDS011;68405;47.190;27.558;2023-07-22T07:35:07;4.40;;;3.10;;
78838;SDS011;68405;47.190;27.558;2023-07-22T07:37:36;3.90;;;2.60;;
78838;SDS011;68405;47.190;27.558;2023-07-22T07:40:07;5.50;;;3.10;;
78838;SDS011;68405;47.190;27.558;2023-07-22T07:42:37;4.70;;;3.30;;
78838;SDS011;68405;47.190;27.558;2023-07-22T07:45:07;4.30;;;3.80;;
78838;SDS011;68405;47.190;27.558;2023-07-22T07:47:37;3.60;;;3.10;;
78838;SDS011;68405;47.190;27.558;2023-07-22T07:50:07;5.10;;;2.90;;
78838;SDS011;68405;47.190;27.558;2023-07-22T07:52:37;3.90;;;2.50;;
78838;SDS011;68405;47.190;27.558;2023-07-22T07:55:06;3.20;;;2.40;;
78838;SDS011;68405;47.190;27.558;2023-07-22T07:57:36;4.50;;;2.40;;
78838;SDS011;68405;47.190;27.558;2023-07-22T08:00:07;3.50;;;1.70;;
78838;SDS011;68405;47.190;27.558;2023-07-22T08:02:37;2.90;;;2.10;;
78838;SDS011;68405;47.190;27.558;2023-07-22T08:05:07;2.40;;;2.20;;
78838;SDS011;68405;47.190;27.558;2023-07-22T08:07:37;5.20;;;2.10;;
78838;SDS011;68405;47.190;27.558;2023-07-22T08:10:07;2.70;;;2.30;;
78838;SDS011;68405;47.190;27.558;2023-07-22T08:12:36;4.00;;;2.30;;
78838;SDS011;68405;47.190;27.558;2023-07-22T08:15:07;4.90;;;2.40;;
78838;SDS011;68405;47.190;27.558;2023-07-22T08:17:36;3.10;;;2.20;;
78838;SDS011;68405;47.190;27.558;2023-07-22T08:20:07;3.70;;;2.20;;
78838;SDS011;68405;47.190;27.558;2023-07-22T08:22:37;3.20;;;2.10;;
78838;SDS011;68405;47.190;27.558;2023-07-22T08:25:06;4.80;;;2.90;;
78838;SDS011;68405;47.190;27.558;2023-07-22T08:27:35;3.80;;;2.50;;
78838;SDS011;68405;47.190;27.558;2023-07-22T08:30:05;3.20;;;2.80;;
78838;SDS011;68405;47.190;27.558;2023-07-22T08:32:36;2.90;;;2.50;;
78838;SDS011;68405;47.190;27.558;2023-07-22T08:35:05;2.30;;;2.10;;
78838;SDS011;68405;47.190;27.558;2023-07-22T08:37:35;3.80;;;2.00;;
78838;SDS011;68405;47.190;27.558;2023-07-22T08:40:05;3.20;;;1.90;;
78838;SDS011;68405;47.190;27.558;2023-07-22T08:42:36;3.70;;;1.90;;
78838;SDS011;68405;47.190;27.558;2023-07-22T08:45:09;3.30;;;1.90;;
78838;SDS011;68405;47.190;27.558;2023-07-22T08:47:42;2.60;;;1.50;;
78838;SDS011;68405;47.190;27.558;2023-07-22T08:50:16;2.30;;;1.50;;
78838;SDS011;68405;47.190;27.558;2023-07-22T08:52:50;2.40;;;1.70;;
78838;SDS011;68405;47.190;27.558;2023-07-22T08:55:20;1.50;;;1.20;;
78838;SDS011;68405;47.190;27.558;2023-07-22T08:57:49;3.60;;;1.70;;
78838;SDS011;68405;47.190;27.558;2023-07-22T09:00:19;2.30;;;1.30;;
78838;SDS011;68405;47.190;27.558;2023-07-22T09:02:49;1.70;;;1.30;;
78838;SDS011;68405;47.190;27.558;2023-07-22T09:05:20;2.20;;;1.30;;
78838;SDS011;68405;47.190;27.558;2023-07-22T09:07:49;2.20;;;1.60;;
78838;SDS011;68405;47.190;27.558;2023-07-22T09:10:19;2.80;;;1.60;;
78838;SDS011;68405;47.190;27.558;2023-07-22T09:12:48;2.90;;;1.30;;
78838;SDS011;68405;47.190;27.558;2023-07-22T09:15:18;3.10;;;1.70;;
78838;SDS011;68405;47.190;27.558;2023-07-22T09:17:47;2.30;;;1.90;;
78838;SDS011;68405;47.190;27.558;2023-07-22T09:20:16;3.10;;;1.60;;
78838;SDS011;68405;47.190;27.558;2023-07-22T09:22:47;4.00;;;1.90;;
78838;SDS011;68405;47.190;27.558;2023-07-22T09:25:17;1.90;;;1.60;;
78838;SDS011;68405;47.190;27.558;2023-07-22T09:27:48;2.40;;;1.90;;
78838;SDS011;68405;47.190;27.558;2023-07-22T09:30:22;1.90;;;1.60;;
78838;SDS011;68405;47.190;27.558;2023-07-22T09:32:53;4.70;;;1.90;;
78838;SDS011;68405;47.190;27.558;2023-07-22T09:35:23;2.90;;;1.70;;
78838;SDS011;68405;47.190;27.558;2023-07-22T09:37:54;2.80;;;1.70;;
78838;SDS011;68405;47.190;27.558;2023-07-22T09:40:24;2.30;;;1.80;;
78838;SDS011;68405;47.190;27.558;2023-07-22T09:42:54;2.30;;;1.80;;
78838;SDS011;68405;47.190;27.558;2023-07-22T09:45:23;2.70;;;1.80;;
78838;SDS011;68405;47.190;27.558;2023-07-22T09:47:53;2.80;;;1.80;;
78838;SDS011;68405;47.190;27.558;2023-07-22T09:50:23;2.40;;;1.80;;
78838;SDS011;68405;47.190;27.558;2023-07-22T09:52:53;2.40;;;1.60;;
78838;SDS011;68405;47.190;27.558;2023-07-22T09:55:25;2.40;;;1.30;;
78838;SDS011;68405;47.190;27.558;2023-07-22T09:57:56;3.50;;;1.20;;
78838;SDS011;68405;47.190;27.558;2023-07-22T10:00:28;1.40;;;1.20;;
78838;SDS011;68405;47.190;27.558;2023-07-22T10:02:58;3.30;;;1.20;;
78838;SDS011;68405;47.190;27.558;2023-07-22T10:05:28;2.10;;;1.00;;
78838;SDS011;68405;47.190;27.558;2023-07-22T10:08:04;1.70;;;1.00;;
78838;SDS011;68405;47.190;27.558;2023-07-22T10:10:34;1.50;;;1.20;;
78838;SDS011;68405;47.190;27.558;2023-07-22T10:13:05;2.30;;;0.80;;
78838;SDS011;68405;47.190;27.558;2023-07-22T10:15:34;1.90;;;0.90;;
78838;SDS011;68405;47.190;27.558;2023-07-22T10:18:04;3.40;;;1.30;;
78838;SDS011;68405;47.190;27.558;2023-07-22T10:20:33;1.60;;;1.10;;
78838;SDS011;68405;47.190;27.558;2023-07-22T10:23:03;3.70;;;1.10;;
78838;SDS011;68405;47.190;27.558;2023-07-22T10:25:34;2.60;;;1.00;;
78838;SDS011;68405;47.190;27.558;2023-07-22T10:28:04;2.00;;;1.00;;
78838;SDS011;68405;47.190;27.558;2023-07-22T10:30:34;3.20;;;1.20;;
78838;SDS011;68405;47.190;27.558;2023-07-22T10:33:03;2.60;;;1.10;;
78838;SDS011;68405;47.190;27.558;2023-07-22T10:35:40;3.40;;;1.90;;
78838;SDS011;68405;47.190;27.558;2023-07-22T10:38:10;4.30;;;2.00;;
78838;SDS011;68405;47.190;27.558;2023-07-22T10:40:46;3.10;;;1.50;;
78838;SDS011;68405;47.190;27.558;2023-07-22T10:43:17;2.80;;;1.60;;
78838;SDS011;68405;47.190;27.558;2023-07-22T10:45:52;2.00;;;1.40;;
78838;SDS011;68405;47.190;27.558;2023-07-22T10:48:22;4.20;;;1.60;;
78838;SDS011;68405;47.190;27.558;2023-07-22T10:50:54;2.20;;;1.50;;
78838;SDS011;68405;47.190;27.558;2023-07-22T10:53:29;2.10;;;1.60;;
78838;SDS011;68405;47.190;27.558;2023-07-22T10:58:58;5.10;;;1.70;;
78838;SDS011;68405;47.190;27.558;2023-07-22T11:01:37;1.60;;;1.40;;
78838;SDS011;68405;47.190;27.558;2023-07-22T11:04:10;3.20;;;1.50;;
78838;SDS011;68405;47.190;27.558;2023-07-22T11:06:53;2.30;;;1.60;;
78838;SDS011;68405;47.190;27.558;2023-07-22T11:09:40;3.60;;;1.70;;
78838;SDS011;68405;47.190;27.558;2023-07-22T11:12:13;3.50;;;1.40;;
78838;SDS011;68405;47.190;27.558;2023-07-22T11:14:47;3.40;;;1.70;;
78838;SDS011;68405;47.190;27.558;2023-07-22T11:17:17;2.60;;;1.40;;
78838;SDS011;68405;47.190;27.558;2023-07-22T11:19:56;2.00;;;1.60;;
78838;SDS011;68405;47.190;27.558;2023-07-22T11:22:25;2.00;;;1.60;;
78838;SDS011;68405;47.190;27.558;2023-07-22T11:24:57;3.70;;;2.00;;
78838;SDS011;68405;47.190;27.558;2023-07-22T11:27:27;3.00;;;1.40;;
78838;SDS011;68405;47.190;27.558;2023-07-22T11:29:57;1.90;;;1.30;;
78838;SDS011;68405;47.190;27.558;2023-07-22T11:32:26;1.90;;;1.30;;
78838;SDS011;68405;47.190;27.558;2023-07-22T11:34:56;1.90;;;1.30;;
78838;SDS011;68405;47.190;27.558;2023-07-22T11:37:26;4.40;;;1.50;;
78838;SDS011;68405;47.190;27.558;2023-07-22T11:40:00;1.90;;;1.50;;
78838;SDS011;68405;47.190;27.558;2023-07-22T11:42:29;3.50;;;1.30;;
78838;SDS011;68405;47.190;27.558;2023-07-22T11:45:01;2.70;;;1.50;;
78838;SDS011;68405;47.190;27.558;2023-07-22T11:47:30;1.50;;;1.30;;
78838;SDS011;68405;47.190;27.558;2023-07-22T11:49:59;2.30;;;1.30;;
78838;SDS011;68405;47.190;27.558;2023-07-22T11:52:28;3.10;;;1.40;;
78838;SDS011;68405;47.190;27.558;2023-07-22T11:55:01;5.70;;;1.50;;
78838;SDS011;68405;47.190;27.558;2023-07-22T11:57:31;1.80;;;1.10;;
78838;SDS011;68405;47.190;27.558;2023-07-22T12:00:00;2.60;;;1.20;;
78838;SDS011;68405;47.190;27.558;2023-07-22T12:02:29;1.70;;;1.20;;
78838;SDS011;68405;47.190;27.558;2023-07-22T12:05:05;2.30;;;1.50;;
78838;SDS011;68405;47.190;27.558;2023-07-22T12:07:35;1.60;;;1.20;;
78838;SDS011;68405;47.190;27.558;2023-07-22T12:10:07;1.60;;;1.30;;
78838;SDS011;68405;47.190;27.558;2023-07-22T12:12:39;3.10;;;1.30;;
78838;SDS011;68405;47.190;27.558;2023-07-22T12:15:10;1.50;;;1.10;;
78838;SDS011;68405;47.190;27.558;2023-07-22T12:17:44;4.40;;;1.60;;
78838;SDS011;68405;47.190;27.558;2023-07-22T12:20:14;2.10;;;1.50;;
78838;SDS011;68405;47.190;27.558;2023-07-22T12:22:44;2.90;;;1.60;;
78838;SDS011;68405;47.190;27.558;2023-07-22T12:25:13;3.10;;;1.80;;
78838;SDS011;68405;47.190;27.558;2023-07-22T12:27:41;3.10;;;1.60;;
78838;SDS011;68405;47.190;27.558;2023-07-22T12:30:11;2.10;;;1.50;;
78838;SDS011;68405;47.190;27.558;2023-07-22T12:32:40;3.30;;;1.60;;
78838;SDS011;68405;47.190;27.558;2023-07-22T12:35:09;3.60;;;1.80;;
78838;SDS011;68405;47.190;27.558;2023-07-22T12:37:40;3.80;;;1.70;;
78838;SDS011;68405;47.190;27.558;2023-07-22T12:40:10;2.20;;;1.50;;
78838;SDS011;68405;47.190;27.558;2023-07-22T12:42:40;3.60;;;1.70;;
78838;SDS011;68405;47.190;27.558;2023-07-22T12:45:09;2.50;;;1.60;;
78838;SDS011;68405;47.190;27.558;2023-07-22T12:47:38;1.90;;;1.40;;
78838;SDS011;68405;47.190;27.558;2023-07-22T12:50:08;2.40;;;1.70;;
78838;SDS011;68405;47.190;27.558;2023-07-22T12:52:37;2.90;;;1.60;;
78838;SDS011;68405;47.190;27.558;2023-07-22T12:55:07;2.50;;;1.30;;
78838;SDS011;68405;47.190;27.558;2023-07-22T12:57:36;2.70;;;1.40;;
78838;SDS011;68405;47.190;27.558;2023-07-22T13:00:06;3.20;;;1.60;;
78838;SDS011;68405;47.190;27.558;2023-07-22T13:02:37;2.20;;;1.50;;
78838;SDS011;68405;47.190;27.558;2023-07-22T13:05:07;2.10;;;1.30;;
78838;SDS011;68405;47.190;27.558;2023-07-22T13:07:37;1.60;;;1.40;;
78838;SDS011;68405;47.190;27.558;2023-07-22T13:10:09;1.80;;;1.20;;
78838;SDS011;68405;47.190;27.558;2023-07-22T13:12:45;1.90;;;1.50;;
78838;SDS011;68405;47.190;27.558;2023-07-22T13:15:14;2.20;;;1.40;;
78838;SDS011;68405;47.190;27.558;2023-07-22T13:17:43;2.40;;;1.50;;
78838;SDS011;68405;47.190;27.558;2023-07-22T13:20:12;2.50;;;1.40;;
78838;SDS011;68405;47.190;27.558;2023-07-22T13:22:41;2.80;;;1.60;;
78838;SDS011;68405;47.190;27.558;2023-07-22T13:25:10;5.20;;;1.60;;
78838;SDS011;68405;47.190;27.558;2023-07-22T13:27:38;2.10;;;1.70;;
78838;SDS011;68405;47.190;27.558;2023-07-22T13:30:08;3.30;;;1.80;;
78838;SDS011;68405;47.190;27.558;2023-07-22T13:32:37;2.70;;;1.80;;
78838;SDS011;68405;47.190;27.558;2023-07-22T13:35:07;5.10;;;2.00;;
78838;SDS011;68405;47.190;27.558;2023-07-22T13:37:37;5.20;;;2.00;;
78838;SDS011;68405;47.190;27.558;2023-07-22T13:40:07;3.80;;;1.90;;
78838;SDS011;68405;47.190;27.558;2023-07-22T13:42:38;3.10;;;2.40;;
78838;SDS011;68405;47.190;27.558;2023-07-22T13:45:08;3.80;;;2.40;;
78838;SDS011;68405;47.190;27.558;2023-07-22T13:47:37;6.10;;;2.10;;
78838;SDS011;68405;47.190;27.558;2023-07-22T13:50:06;3.10;;;2.00;;
78838;SDS011;68405;47.190;27.558;2023-07-22T13:52:36;4.10;;;2.40;;
78838;SDS011;68405;47.190;27.558;2023-07-22T13:55:08;5.60;;;1.90;;
78838;SDS011;68405;47.190;27.558;2023-07-22T13:57:37;3.80;;;2.30;;
78838;SDS011;68405;47.190;27.558;2023-07-22T14:00:07;2.50;;;1.80;;
78838;SDS011;68405;47.190;27.558;2023-07-22T14:02:37;3.00;;;2.30;;
78838;SDS011;68405;47.190;27.558;2023-07-22T14:05:08;2.80;;;2.10;;
78838;SDS011;68405;47.190;27.558;2023-07-22T14:07:38;3.50;;;2.50;;
78838;SDS011;68405;47.190;27.558;2023-07-22T14:10:08;3.00;;;2.40;;
78838;SDS011;68405;47.190;27.558;2023-07-22T14:12:37;4.60;;;2.50;;
78838;SDS011;68405;47.190;27.558;2023-07-22T14:15:07;4.40;;;2.40;;
78838;SDS011;68405;47.190;27.558;2023-07-22T14:17:37;3.40;;;2.10;;
78838;SDS011;68405;47.190;27.558;2023-07-22T14:20:07;4.00;;;2.40;;
78838;SDS011;68405;47.190;27.558;2023-07-22T14:22:38;4.40;;;2.20;;
78838;SDS011;68405;47.190;27.558;2023-07-22T14:25:08;2.70;;;2.10;;
78838;SDS011;68405;47.190;27.558;2023-07-22T14:27:38;2.50;;;1.80;;
78838;SDS011;68405;47.190;27.558;2023-07-22T14:30:08;2.70;;;2.10;;
78838;SDS011;68405;47.190;27.558;2023-07-22T14:32:37;3.20;;;2.30;;
78838;SDS011;68405;47.190;27.558;2023-07-22T14:35:06;4.60;;;2.00;;
78838;SDS011;68405;47.190;27.558;2023-07-22T14:37:36;3.90;;;2.10;;
78838;SDS011;68405;47.190;27.558;2023-07-22T14:40:06;2.60;;;1.70;;
78838;SDS011;68405;47.190;27.558;2023-07-22T14:42:36;3.90;;;1.90;;
78838;SDS011;68405;47.190;27.558;2023-07-22T14:45:07;2.60;;;2.30;;
78838;SDS011;68405;47.190;27.558;2023-07-22T14:47:36;2.30;;;1.80;;
78838;SDS011;68405;47.190;27.558;2023-07-22T14:50:06;2.60;;;1.70;;
78838;SDS011;68405;47.190;27.558;2023-07-22T14:52:36;4.00;;;1.70;;
78838;SDS011;68405;47.190;27.558;2023-07-22T14:55:06;2.60;;;1.70;;
78838;SDS011;68405;47.190;27.558;2023-07-22T14:57:35;2.90;;;1.60;;
78838;SDS011;68405;47.190;27.558;2023-07-22T15:00:05;4.90;;;1.90;;
78838;SDS011;68405;47.190;27.558;2023-07-22T15:02:37;2.80;;;1.40;;
78838;SDS011;68405;47.190;27.558;2023-07-22T15:05:12;3.30;;;1.40;;
78838;SDS011;68405;47.190;27.558;2023-07-22T15:07:41;3.70;;;1.60;;
78838;SDS011;68405;47.190;27.558;2023-07-22T15:10:10;2.70;;;1.50;;
78838;SDS011;68405;47.190;27.558;2023-07-22T15:12:39;2.30;;;1.30;;
78838;SDS011;68405;47.190;27.558;2023-07-22T15:15:11;1.80;;;1.10;;
78838;SDS011;68405;47.190;27.558;2023-07-22T15:17:40;2.40;;;1.20;;
78838;SDS011;68405;47.190;27.558;2023-07-22T15:20:10;6.60;;;1.70;;
78838;SDS011;68405;47.190;27.558;2023-07-22T15:22:40;1.70;;;1.20;;
78838;SDS011;68405;47.190;27.558;2023-07-22T15:25:09;1.30;;;1.00;;